createdAt,value
2023-04-24T00:00:25.448Z,6.40
2023-04-24T00:01:25.461Z,6.60
2023-04-24T00:02:25.633Z,6.70
2023-04-24T00:03:25.547Z,6.10
2023-04-24T00:04:25.509Z,6.40
2023-04-24T00:05:25.388Z,6.60
2023-04-24T00:06:25.383Z,5.90
2023-04-24T00:07:25.387Z,6.20
2023-04-24T00:08:25.387Z,6.50
2023-04-24T00:09:25.363Z,6.50
2023-04-24T00:10:25.343Z,6.50
2023-04-24T00:11:25.331Z,5.80
2023-04-24T00:12:25.341Z,6.40
2023-04-24T00:13:25.304Z,6.40
2023-04-24T00:14:25.320Z,6.40
2023-04-24T00:15:25.278Z,6.20
2023-04-24T00:16:25.386Z,5.80
2023-04-24T00:17:25.330Z,6.10
2023-04-24T00:18:25.247Z,6.30
2023-04-24T00:19:25.245Z,5.70
2023-04-24T00:20:25.248Z,5.90
2023-04-24T00:21:25.212Z,5.90
2023-04-24T00:22:25.215Z,6.20
2023-04-24T00:23:25.188Z,6.20
2023-04-24T00:24:25.181Z,6.10
2023-04-24T00:25:25.179Z,6.60
2023-04-24T00:26:25.177Z,6.40
2023-04-24T00:27:25.173Z,6.50
2023-04-24T00:28:25.126Z,5.80
2023-04-24T00:29:25.123Z,5.80
2023-04-24T00:30:25.114Z,6.10
2023-04-24T00:31:25.133Z,5.60
2023-04-24T00:32:25.137Z,6.50
2023-04-24T00:33:25.078Z,6.00
2023-04-24T00:34:25.070Z,6.20
2023-04-24T00:35:25.060Z,6.00
2023-04-24T00:36:25.052Z,6.50
2023-04-24T00:37:25.070Z,6.60
2023-04-24T00:38:25.031Z,6.10
2023-04-24T00:39:25.016Z,6.20
2023-04-24T00:40:25.007Z,6.50
2023-04-24T00:41:24.985Z,6.00
2023-04-24T00:42:24.995Z,5.80
2023-04-24T00:43:24.969Z,6.00
2023-04-24T00:44:24.952Z,6.20
2023-04-24T00:45:24.956Z,6.30
2023-04-24T00:46:24.958Z,6.00
2023-04-24T00:47:24.942Z,5.70
2023-04-24T00:48:24.910Z,5.90
2023-04-24T00:49:24.898Z,6.80
2023-04-24T00:50:24.893Z,5.60
2023-04-24T00:51:24.874Z,5.70
2023-04-24T00:52:24.910Z,6.50
2023-04-24T00:53:24.870Z,5.60
2023-04-24T00:54:24.857Z,5.30
2023-04-24T00:55:24.834Z,5.50
2023-04-24T00:56:24.828Z,6.00
2023-04-24T00:57:24.832Z,5.60
2023-04-24T00:58:24.811Z,5.50
2023-04-24T00:59:24.792Z,5.70
2023-04-24T01:00:24.777Z,5.50
2023-04-24T01:01:24.807Z,5.30
2023-04-24T01:02:25.628Z,5.20
2023-04-24T01:03:24.837Z,5.00
2023-04-24T01:04:24.854Z,5.30
2023-04-24T01:05:24.739Z,5.00
2023-04-24T01:06:24.714Z,4.60
2023-04-24T01:07:24.733Z,4.70
2023-04-24T01:08:24.692Z,4.60
2023-04-24T01:09:24.680Z,4.90
2023-04-24T01:10:24.661Z,4.90
2023-04-24T01:11:24.661Z,4.60
2023-04-24T01:12:24.662Z,4.30
2023-04-24T01:13:24.639Z,3.90
2023-04-24T01:14:24.629Z,4.50
2023-04-24T01:15:24.616Z,4.10
2023-04-24T01:16:24.753Z,4.30
2023-04-24T01:17:24.636Z,3.80
2023-04-24T01:18:24.594Z,4.40
2023-04-24T01:19:24.573Z,4.00
2023-04-24T01:20:24.573Z,3.40
2023-04-24T01:21:24.562Z,4.50
2023-04-24T01:22:24.569Z,3.80
2023-04-24T01:23:24.528Z,3.70
2023-04-24T01:24:24.511Z,4.00
2023-04-24T01:25:24.503Z,3.90
2023-04-24T01:26:24.530Z,4.40
2023-04-24T01:27:24.534Z,4.10
2023-04-24T01:28:24.480Z,4.20
2023-04-24T01:29:24.497Z,3.80
2023-04-24T01:30:24.480Z,4.30
2023-04-24T01:31:24.468Z,3.60
2023-04-24T01:32:24.460Z,3.90
2023-04-24T01:33:24.417Z,3.90
2023-04-24T01:34:24.414Z,3.90
2023-04-24T01:35:24.399Z,3.70
2023-04-24T01:36:26.562Z,3.90
2023-04-24T01:37:24.406Z,3.90
2023-04-24T01:38:24.365Z,3.80
2023-04-24T01:39:24.361Z,3.90
2023-04-24T01:40:24.351Z,3.90
2023-04-24T01:41:24.326Z,3.30
2023-04-24T01:42:24.342Z,3.80
2023-04-24T01:43:24.304Z,3.60
2023-04-24T01:44:24.386Z,3.60
2023-04-24T01:45:24.290Z,3.50
2023-04-24T01:46:24.323Z,3.70
2023-04-24T01:47:24.296Z,3.40
2023-04-24T01:48:24.257Z,3.50
2023-04-24T01:49:24.241Z,3.30
2023-04-24T01:50:24.249Z,3.40
2023-04-24T01:51:24.226Z,3.60
2023-04-24T01:52:24.235Z,3.50
2023-04-24T01:53:24.190Z,3.60
2023-04-24T01:54:24.206Z,3.30
2023-04-24T01:55:24.179Z,3.60
2023-04-24T01:56:24.166Z,3.30
2023-04-24T01:57:24.165Z,3.30
2023-04-24T01:58:24.142Z,3.30
2023-04-24T01:59:24.136Z,3.60
2023-04-24T02:00:24.120Z,3.30
2023-04-24T02:01:24.131Z,3.60
2023-04-24T02:02:24.251Z,3.30
2023-04-24T02:03:24.290Z,3.40
2023-04-24T02:04:24.129Z,3.80
2023-04-24T02:05:24.070Z,3.10
2023-04-24T02:06:24.046Z,3.40
2023-04-24T02:07:24.067Z,3.50
2023-04-24T02:08:24.037Z,3.30
2023-04-24T02:09:24.021Z,3.40
2023-04-24T02:10:24.023Z,3.10
2023-04-24T02:11:24.004Z,3.00
2023-04-24T02:12:24.003Z,3.40
2023-04-24T02:13:23.969Z,3.50
2023-04-24T02:14:23.968Z,3.20
2023-04-24T02:15:23.954Z,2.90
2023-04-24T02:16:23.969Z,3.30
2023-04-24T02:17:24.042Z,3.40
2023-04-24T02:18:23.920Z,3.10
2023-04-24T02:19:23.906Z,3.10
2023-04-24T02:20:23.889Z,3.40
2023-04-24T02:21:23.877Z,2.90
2023-04-24T02:22:23.870Z,3.30
2023-04-24T02:23:23.871Z,3.10
2023-04-24T02:24:23.862Z,3.10
2023-04-24T02:25:23.844Z,3.20
2023-04-24T02:26:23.835Z,3.30
2023-04-24T02:27:23.806Z,3.20
2023-04-24T02:28:23.824Z,3.10
2023-04-24T02:29:23.790Z,3.70
2023-04-24T02:30:23.778Z,3.40
2023-04-24T02:31:23.893Z,3.10
2023-04-24T02:32:23.753Z,3.10
2023-04-24T02:33:23.761Z,3.40
2023-04-24T02:34:23.726Z,3.50
2023-04-24T02:35:23.804Z,3.00
2023-04-24T02:36:23.718Z,3.10
2023-04-24T02:37:23.697Z,3.20
2023-04-24T02:38:23.712Z,3.10
2023-04-24T02:39:23.674Z,3.00
2023-04-24T02:40:23.666Z,3.40
2023-04-24T02:41:23.647Z,3.50
2023-04-24T02:42:23.652Z,3.20
2023-04-24T02:43:23.707Z,3.00
2023-04-24T02:44:23.644Z,3.20
2023-04-24T02:45:23.609Z,3.00
2023-04-24T02:46:23.673Z,3.00
2023-04-24T02:47:23.628Z,3.30
2023-04-24T02:48:23.589Z,3.40
2023-04-24T02:49:23.559Z,3.10
2023-04-24T02:50:23.557Z,3.00
2023-04-24T02:51:23.556Z,2.90
2023-04-24T02:52:23.516Z,2.70
2023-04-24T02:53:23.541Z,2.60
2023-04-24T02:54:23.498Z,2.90
2023-04-24T02:55:23.488Z,3.10
2023-04-24T02:56:23.478Z,3.70
2023-04-24T02:57:23.498Z,3.00
2023-04-24T02:58:23.486Z,3.10
2023-04-24T02:59:23.452Z,2.80
2023-04-24T03:00:23.433Z,3.40
2023-04-24T03:01:23.498Z,2.90
2023-04-24T03:02:23.515Z,2.50
2023-04-24T03:03:23.499Z,2.60
2023-04-24T03:04:23.513Z,2.60
2023-04-24T03:05:23.393Z,2.70
2023-04-24T03:06:23.366Z,2.70
2023-04-24T03:07:23.361Z,2.70
2023-04-24T03:08:23.360Z,2.90
2023-04-24T03:09:23.331Z,2.80
2023-04-24T03:10:23.331Z,2.90
2023-04-24T03:11:23.318Z,2.80
2023-04-24T03:12:23.304Z,2.50
2023-04-24T03:13:23.310Z,2.90
2023-04-24T03:14:23.274Z,2.80
2023-04-24T03:15:23.269Z,2.80
2023-04-24T03:16:23.313Z,2.50
2023-04-24T03:17:23.251Z,2.40
2023-04-24T03:18:23.268Z,2.80
2023-04-24T03:19:23.223Z,2.50
2023-04-24T03:20:23.211Z,2.90
2023-04-24T03:21:23.204Z,2.90
2023-04-24T03:22:23.197Z,2.30
2023-04-24T03:23:23.210Z,2.70
2023-04-24T03:24:23.169Z,2.30
2023-04-24T03:25:23.199Z,2.20
2023-04-24T03:26:23.159Z,2.30
2023-04-24T03:27:23.141Z,2.50
2023-04-24T03:28:23.140Z,2.50
2023-04-24T03:29:23.122Z,2.50
2023-04-24T03:30:23.102Z,2.60
2023-04-24T03:31:23.131Z,2.70
2023-04-24T03:32:23.097Z,2.30
2023-04-24T03:33:23.092Z,2.50
2023-04-24T03:34:23.085Z,2.20
2023-04-24T03:35:23.057Z,2.30
2023-04-24T03:36:23.041Z,2.60
2023-04-24T03:37:23.031Z,2.30
2023-04-24T03:38:23.053Z,2.70
2023-04-24T03:39:23.012Z,2.20
2023-04-24T03:40:22.994Z,2.50
2023-04-24T03:41:22.992Z,2.30
2023-04-24T03:42:22.980Z,2.20
2023-04-24T03:43:22.972Z,2.50
2023-04-24T03:44:22.950Z,2.40
2023-04-24T03:45:22.959Z,2.00
2023-04-24T03:46:23.093Z,2.60
2023-04-24T03:47:22.947Z,2.20
2023-04-24T03:48:22.930Z,2.30
2023-04-24T03:49:22.925Z,2.20
2023-04-24T03:50:22.886Z,2.50
2023-04-24T03:51:22.880Z,2.40
2023-04-24T03:52:22.865Z,2.70
2023-04-24T03:53:22.865Z,2.30
2023-04-24T03:54:22.845Z,2.30
2023-04-24T03:55:22.827Z,2.50
2023-04-24T03:56:22.815Z,2.10
2023-04-24T03:57:22.798Z,2.80
2023-04-24T03:58:22.808Z,2.40
2023-04-24T03:59:22.788Z,2.50
2023-04-24T04:00:22.778Z,2.70
2023-04-24T04:01:22.767Z,2.40
2023-04-24T04:02:22.850Z,2.50
2023-04-24T04:03:22.885Z,2.40
2023-04-24T04:04:22.943Z,2.40
2023-04-24T04:05:22.864Z,2.60
2023-04-24T04:06:22.740Z,2.40
2023-04-24T04:07:22.712Z,2.40
2023-04-24T04:08:22.706Z,2.60
2023-04-24T04:09:22.709Z,2.60
2023-04-24T04:10:22.656Z,2.30
2023-04-24T04:11:22.654Z,2.50
2023-04-24T04:12:22.661Z,2.40
2023-04-24T04:13:22.652Z,2.40
2023-04-24T04:14:22.665Z,2.70
2023-04-24T04:15:22.606Z,2.40
2023-04-24T04:16:22.637Z,2.90
2023-04-24T04:17:22.607Z,2.20
2023-04-24T04:18:22.605Z,2.30
2023-04-24T04:19:22.565Z,2.60
2023-04-24T04:20:22.562Z,2.70
2023-04-24T04:21:22.663Z,2.10
2023-04-24T04:22:22.529Z,2.30
2023-04-24T04:23:22.535Z,2.40
2023-04-24T04:24:22.513Z,2.40
2023-04-24T04:25:24.482Z,2.40
2023-04-24T04:26:22.481Z,2.40
2023-04-24T04:27:22.526Z,3.30
2023-04-24T04:28:22.506Z,2.50
2023-04-24T04:29:22.476Z,2.40
2023-04-24T04:30:22.456Z,2.50
2023-04-24T04:31:22.451Z,2.50
2023-04-24T04:32:22.418Z,2.50
2023-04-24T04:33:22.430Z,2.40
2023-04-24T04:34:22.404Z,2.30
2023-04-24T04:35:23.140Z,2.60
2023-04-24T04:36:22.375Z,2.20
2023-04-24T04:37:22.364Z,2.60
2023-04-24T04:38:22.371Z,2.30
2023-04-24T04:39:22.338Z,2.50
2023-04-24T04:40:22.342Z,2.70
2023-04-24T04:41:22.322Z,2.20
2023-04-24T04:42:22.309Z,2.50
2023-04-24T04:43:22.314Z,2.30
2023-04-24T04:44:22.297Z,2.50
2023-04-24T04:45:22.283Z,2.10
2023-04-24T04:46:22.343Z,2.70
2023-04-24T04:47:22.294Z,2.40
2023-04-24T04:48:22.268Z,2.50
2023-04-24T04:49:22.233Z,2.40
2023-04-24T04:50:22.219Z,2.20
2023-04-24T04:51:22.214Z,2.00
2023-04-24T04:52:22.206Z,2.10
2023-04-24T04:53:22.204Z,2.10
2023-04-24T04:54:22.176Z,2.60
2023-04-24T04:55:22.177Z,2.30
2023-04-24T04:56:22.154Z,2.60
2023-04-24T04:57:22.148Z,2.30
2023-04-24T04:58:22.164Z,2.10
2023-04-24T04:59:22.123Z,2.60
2023-04-24T05:00:22.115Z,2.30
2023-04-24T05:01:22.136Z,2.10
2023-04-24T05:02:22.187Z,2.10
2023-04-24T05:03:22.211Z,2.10
2023-04-24T05:04:22.361Z,2.10
2023-04-24T05:05:22.054Z,2.20
2023-04-24T05:06:24.250Z,2.30
2023-04-24T05:07:22.039Z,2.20
2023-04-24T05:08:27.001Z,2.10
2023-04-24T05:09:22.019Z,2.00
2023-04-24T05:10:22.006Z,2.10
2023-04-24T05:11:21.993Z,2.20
2023-04-24T05:12:21.984Z,2.30
2023-04-24T05:13:35.575Z,2.00
2023-04-24T05:14:21.977Z,1.90
2023-04-24T05:15:21.950Z,1.90
2023-04-24T05:16:21.971Z,2.00
2023-04-24T05:17:21.960Z,2.00
2023-04-24T05:18:21.939Z,1.80
2023-04-24T05:19:21.940Z,2.20
2023-04-24T05:20:21.896Z,1.60
2023-04-24T05:21:21.905Z,1.80
2023-04-24T05:22:21.907Z,2.00
2023-04-24T05:23:21.872Z,1.90
2023-04-24T05:24:21.845Z,1.80
2023-04-24T05:25:21.834Z,1.80
2023-04-24T05:26:21.842Z,2.10
2023-04-24T05:27:21.815Z,1.90
2023-04-24T05:28:21.826Z,2.00
2023-04-24T05:29:21.829Z,1.70
2023-04-24T05:30:21.804Z,1.80
2023-04-24T05:31:21.809Z,1.80
2023-04-24T05:32:21.768Z,2.30
2023-04-24T05:33:21.778Z,2.10
2023-04-24T05:34:21.747Z,2.20
2023-04-24T05:35:21.742Z,1.90
2023-04-24T05:36:21.738Z,1.80
2023-04-24T05:37:21.728Z,1.90
2023-04-24T05:38:21.770Z,1.80
2023-04-24T05:39:28.244Z,1.60
2023-04-24T05:40:21.682Z,2.10
2023-04-24T05:41:21.668Z,1.70
2023-04-24T05:42:21.705Z,1.80
2023-04-24T05:43:21.689Z,1.90
2023-04-24T05:44:21.658Z,2.70
2023-04-24T05:45:21.638Z,2.00
2023-04-24T05:46:21.627Z,1.80
2023-04-24T05:47:21.614Z,1.70
2023-04-24T05:48:21.618Z,1.80
2023-04-24T05:49:21.632Z,1.60
2023-04-24T05:50:21.588Z,1.60
2023-04-24T05:51:21.587Z,2.20
2023-04-24T05:52:21.604Z,2.20
2023-04-24T05:53:21.543Z,1.80
2023-04-24T05:54:21.567Z,1.90
2023-04-24T05:55:21.521Z,2.10
2023-04-24T05:56:21.558Z,2.30
2023-04-24T05:57:21.547Z,1.90
2023-04-24T05:58:21.498Z,1.90
2023-04-24T05:59:21.560Z,2.10
2023-04-24T06:00:21.491Z,2.40
2023-04-24T06:01:21.484Z,2.10
2023-04-24T06:02:21.492Z,1.90
2023-04-24T06:03:21.555Z,2.10
2023-04-24T06:04:21.843Z,2.20
2023-04-24T06:05:21.466Z,2.00
2023-04-24T06:06:21.432Z,2.00
2023-04-24T06:07:21.405Z,1.80
2023-04-24T06:08:21.443Z,1.80
2023-04-24T06:09:21.405Z,1.80
2023-04-24T06:10:21.395Z,1.90
2023-04-24T06:11:21.341Z,2.10
2023-04-24T06:12:21.361Z,2.00
2023-04-24T06:13:21.351Z,2.30
2023-04-24T06:14:21.350Z,1.90
2023-04-24T06:15:21.311Z,2.10
2023-04-24T06:16:21.369Z,2.00
2023-04-24T06:17:21.347Z,2.20
2023-04-24T06:18:21.292Z,1.80
2023-04-24T06:19:21.285Z,2.00
2023-04-24T06:20:21.252Z,2.50
2023-04-24T06:21:21.229Z,2.00
2023-04-24T06:22:21.276Z,2.40
2023-04-24T06:23:21.251Z,2.00
2023-04-24T06:24:21.234Z,2.40
2023-04-24T06:25:21.198Z,2.60
2023-04-24T06:26:21.195Z,2.40
2023-04-24T06:27:21.193Z,2.10
2023-04-24T06:28:21.149Z,2.70
2023-04-24T06:29:21.196Z,2.20
2023-04-24T06:30:21.142Z,2.10
2023-04-24T06:31:21.171Z,2.60
2023-04-24T06:32:21.260Z,2.80
2023-04-24T06:33:23.005Z,2.60
2023-04-24T06:34:21.125Z,2.80
2023-04-24T06:35:21.076Z,2.30
2023-04-24T06:36:21.085Z,2.60
2023-04-24T06:37:21.049Z,2.40
2023-04-24T06:38:21.050Z,2.30
2023-04-24T06:39:21.070Z,2.50
2023-04-24T06:40:21.035Z,2.50
2023-04-24T06:41:20.998Z,2.60
2023-04-24T06:42:20.978Z,3.00
2023-04-24T06:43:20.971Z,2.60
2023-04-24T06:44:20.988Z,3.00
2023-04-24T06:45:21.021Z,2.80
2023-04-24T06:46:21.007Z,2.60
2023-04-24T06:47:20.972Z,2.80
2023-04-24T06:48:20.936Z,2.50
2023-04-24T06:49:21.006Z,2.80
2023-04-24T06:50:20.918Z,2.60
2023-04-24T06:51:20.900Z,3.10
2023-04-24T06:52:20.900Z,3.10
2023-04-24T06:53:20.888Z,3.00
2023-04-24T06:54:20.896Z,3.10
2023-04-24T06:55:20.870Z,2.80
2023-04-24T06:56:20.850Z,2.90
2023-04-24T06:57:21.044Z,2.80
2023-04-24T06:58:20.829Z,3.30
2023-04-24T06:59:20.819Z,3.20
2023-04-24T07:00:20.831Z,3.40
2023-04-24T07:01:20.819Z,3.40
2023-04-24T07:02:20.829Z,3.90
2023-04-24T07:03:20.926Z,3.40
2023-04-24T07:04:20.937Z,3.60
2023-04-24T07:05:20.767Z,3.70
2023-04-24T07:06:20.735Z,3.30
2023-04-24T07:07:20.722Z,3.90
2023-04-24T07:08:20.750Z,3.70
2023-04-24T07:09:20.746Z,3.50
2023-04-24T07:10:20.686Z,3.90
2023-04-24T07:11:20.683Z,4.00
2023-04-24T07:12:20.681Z,4.20
2023-04-24T07:13:20.659Z,4.10
2023-04-24T07:14:20.646Z,4.10
2023-04-24T07:15:20.731Z,4.20
2023-04-24T07:16:20.663Z,4.10
2023-04-24T07:17:20.671Z,3.90
2023-04-24T07:18:20.606Z,4.50
2023-04-24T07:19:21.033Z,3.90
2023-04-24T07:20:20.595Z,5.00
2023-04-24T07:21:20.630Z,4.40
2023-04-24T07:22:20.544Z,4.20
2023-04-24T07:23:20.559Z,4.20
2023-04-24T07:24:22.281Z,4.10
2023-04-24T07:25:20.572Z,4.30
2023-04-24T07:26:20.506Z,4.10
2023-04-24T07:27:20.538Z,4.00
2023-04-24T07:28:20.497Z,4.50
2023-04-24T07:29:20.497Z,4.30
2023-04-24T07:30:20.489Z,4.60
2023-04-24T07:31:20.525Z,5.50
2023-04-24T07:32:20.438Z,5.50
2023-04-24T07:33:20.481Z,5.10
2023-04-24T07:34:20.422Z,4.90
2023-04-24T07:35:20.400Z,5.10
2023-04-24T07:36:20.426Z,5.30
2023-04-24T07:37:20.489Z,5.10
2023-04-24T07:38:20.393Z,4.70
2023-04-24T07:39:20.411Z,5.20
2023-04-24T07:40:20.368Z,6.20
2023-04-24T07:41:20.358Z,5.60
2023-04-24T07:42:20.354Z,5.20
2023-04-24T07:43:20.338Z,5.30
2023-04-24T07:44:20.333Z,5.50
2023-04-24T07:45:20.287Z,5.20
2023-04-24T07:46:20.308Z,5.30
2023-04-24T07:47:20.284Z,5.90
2023-04-24T07:48:20.253Z,5.20
2023-04-24T07:49:20.281Z,5.40
2023-04-24T07:50:20.230Z,5.50
2023-04-24T07:51:20.215Z,5.40
2023-04-24T07:52:20.242Z,5.90
2023-04-24T07:53:20.208Z,5.70
2023-04-24T07:54:20.255Z,5.50
2023-04-24T07:55:23.249Z,5.40
2023-04-24T07:56:20.189Z,6.00
2023-04-24T07:57:20.179Z,6.10
2023-04-24T07:58:20.165Z,5.50
2023-04-24T07:59:20.146Z,5.40
2023-04-24T08:00:20.143Z,6.00
2023-04-24T08:01:20.120Z,5.80
2023-04-24T08:02:20.118Z,6.30
2023-04-24T08:03:20.199Z,5.50
2023-04-24T08:04:20.295Z,5.80
2023-04-24T08:05:20.224Z,5.60
2023-04-24T08:06:20.076Z,6.00
2023-04-24T08:07:20.062Z,5.60
2023-04-24T08:08:20.031Z,5.50
2023-04-24T08:09:20.063Z,5.70
2023-04-24T08:10:20.039Z,6.00
2023-04-24T08:11:20.002Z,6.00
2023-04-24T08:12:20.558Z,5.90
2023-04-24T08:13:19.975Z,5.90
2023-04-24T08:14:19.984Z,5.70
2023-04-24T08:15:19.955Z,5.90
2023-04-24T08:16:20.017Z,6.10
2023-04-24T08:17:19.943Z,5.60
2023-04-24T08:18:19.993Z,5.60
2023-04-24T08:19:19.942Z,5.60
2023-04-24T08:20:19.895Z,5.50
2023-04-24T08:21:19.921Z,5.30
2023-04-24T08:22:19.883Z,5.60
2023-04-24T08:23:19.873Z,5.40
2023-04-24T08:24:19.878Z,5.40
2023-04-24T08:25:19.868Z,5.80
2023-04-24T08:26:19.832Z,5.80
2023-04-24T08:27:19.810Z,6.20
2023-04-24T08:28:19.842Z,5.40
2023-04-24T08:29:19.850Z,5.90
2023-04-24T08:30:19.798Z,5.90
2023-04-24T08:31:19.780Z,5.50
2023-04-24T08:32:19.834Z,5.90
2023-04-24T08:33:19.749Z,6.10
2023-04-24T08:34:19.796Z,6.40
2023-04-24T08:35:19.731Z,6.00
2023-04-24T08:36:19.738Z,5.80
2023-04-24T08:37:19.708Z,6.80
2023-04-24T08:38:19.724Z,6.50
2023-04-24T08:39:19.712Z,6.60
2023-04-24T08:40:19.714Z,6.10
2023-04-24T08:41:19.679Z,7.40
2023-04-24T08:42:19.658Z,6.80
2023-04-24T08:43:19.643Z,6.50
2023-04-24T08:44:19.654Z,6.80
2023-04-24T08:45:19.616Z,6.60
2023-04-24T08:46:19.669Z,6.70
2023-04-24T08:47:19.608Z,6.80
2023-04-24T08:48:29.733Z,6.60
2023-04-24T08:49:19.598Z,6.80
2023-04-24T08:50:19.625Z,6.30
2023-04-24T08:51:19.556Z,6.80
2023-04-24T08:52:19.547Z,7.00
2023-04-24T08:53:19.518Z,7.10
2023-04-24T08:54:19.526Z,7.30
2023-04-24T08:55:19.498Z,6.60
2023-04-24T08:56:19.507Z,6.60
2023-04-24T08:57:19.513Z,6.00
2023-04-24T08:58:19.497Z,6.40
2023-04-24T08:59:19.481Z,6.20
2023-04-24T09:00:19.485Z,5.90
2023-04-24T09:01:19.486Z,5.90
2023-04-24T09:02:19.528Z,5.70
2023-04-24T09:03:19.508Z,6.30
2023-04-24T09:04:19.622Z,6.00
2023-04-24T09:05:19.408Z,6.60
2023-04-24T09:06:19.395Z,6.40
2023-04-24T09:07:19.398Z,5.70
2023-04-24T09:08:19.388Z,5.90
2023-04-24T09:09:19.371Z,5.80
2023-04-24T09:10:19.371Z,6.20
2023-04-24T09:11:19.347Z,6.70
2023-04-24T09:12:19.335Z,5.80
2023-04-24T09:13:19.310Z,5.90
2023-04-24T09:14:19.336Z,5.70
2023-04-24T09:15:19.277Z,6.40
2023-04-24T09:16:19.351Z,7.00
2023-04-24T09:17:19.264Z,6.00
2023-04-24T09:18:19.271Z,6.10
2023-04-24T09:19:19.261Z,6.20
2023-04-24T09:20:19.268Z,6.30
2023-04-24T09:21:19.216Z,5.80
2023-04-24T09:22:19.219Z,6.30
2023-04-24T09:23:19.198Z,6.10
2023-04-24T09:24:19.248Z,6.20
2023-04-24T09:25:19.176Z,6.20
2023-04-24T09:26:19.151Z,6.70
2023-04-24T09:27:19.142Z,6.50
2023-04-24T09:28:19.142Z,7.00
2023-04-24T09:29:19.155Z,6.20
2023-04-24T09:30:19.247Z,6.30
2023-04-24T09:31:19.251Z,7.10
2023-04-24T09:32:19.131Z,6.30
2023-04-24T09:33:19.081Z,6.80
2023-04-24T09:34:19.133Z,6.50
2023-04-24T09:35:19.077Z,6.50
2023-04-24T09:36:19.070Z,6.50
2023-04-24T09:37:19.230Z,7.00
2023-04-24T09:38:19.035Z,6.80
2023-04-24T09:39:19.032Z,6.50
2023-04-24T09:40:19.047Z,6.80
2023-04-24T09:41:18.988Z,7.40
2023-04-24T09:42:18.975Z,6.90
2023-04-24T09:43:18.980Z,6.90
2023-04-24T09:44:18.983Z,6.80
2023-04-24T09:45:18.955Z,7.50
2023-04-24T09:46:19.002Z,7.60
2023-04-24T09:47:18.959Z,7.80
2023-04-24T09:48:18.925Z,7.80
2023-04-24T09:49:18.924Z,7.60
2023-04-24T09:50:20.506Z,8.00
2023-04-24T09:51:18.911Z,7.50
2023-04-24T09:52:18.878Z,7.60
2023-04-24T09:53:18.864Z,8.30
2023-04-24T09:54:18.869Z,7.80
2023-04-24T09:55:18.831Z,8.00
2023-04-24T09:56:18.819Z,8.40
2023-04-24T09:57:18.826Z,8.00
2023-04-24T09:58:18.801Z,9.00
2023-04-24T09:59:18.817Z,9.00
2023-04-24T10:00:18.809Z,8.70
2023-04-24T10:01:18.825Z,8.80
2023-04-24T10:02:18.868Z,9.00
2023-04-24T10:03:18.773Z,9.50
2023-04-24T10:04:18.759Z,8.90
2023-04-24T10:05:18.730Z,9.30
2023-04-24T10:06:18.708Z,9.40
2023-04-24T10:07:18.706Z,9.20
2023-04-24T10:08:18.688Z,9.10
2023-04-24T10:09:18.711Z,9.60
2023-04-24T10:10:18.699Z,9.10
2023-04-24T10:11:18.706Z,9.30
2023-04-24T10:12:18.642Z,9.20
2023-04-24T10:13:18.671Z,9.70
2023-04-24T10:14:18.646Z,9.10
2023-04-24T10:15:18.694Z,9.60
2023-04-24T10:16:18.626Z,9.80
2023-04-24T10:17:18.610Z,9.80
2023-04-24T10:18:18.621Z,9.40
2023-04-24T10:19:18.575Z,10.00
2023-04-24T10:20:18.578Z,9.80
2023-04-24T10:21:18.554Z,10.30
2023-04-24T10:22:18.537Z,10.40
2023-04-24T10:23:18.570Z,10.20
2023-04-24T10:24:18.510Z,11.00
2023-04-24T10:25:18.510Z,10.30
2023-04-24T10:26:18.502Z,10.50
2023-04-24T10:27:18.480Z,9.80
2023-04-24T10:28:18.470Z,9.80
2023-04-24T10:29:18.468Z,10.40
2023-04-24T10:30:18.497Z,9.70
2023-04-24T10:31:18.461Z,10.10
2023-04-24T10:32:18.443Z,10.30
2023-04-24T10:33:18.423Z,9.80
2023-04-24T10:34:18.435Z,10.10
2023-04-24T10:35:18.403Z,9.70
2023-04-24T10:36:18.370Z,10.10
2023-04-24T10:37:18.358Z,10.80
2023-04-24T10:38:18.371Z,10.40
2023-04-24T10:39:18.351Z,10.10
2023-04-24T10:40:18.334Z,9.50
2023-04-24T10:41:18.314Z,10.60
2023-04-24T10:42:18.310Z,10.00
2023-04-24T10:43:18.307Z,9.40
2023-04-24T10:44:18.305Z,9.30
2023-04-24T10:45:18.284Z,9.30
2023-04-24T10:46:18.304Z,9.80
2023-04-24T10:47:18.261Z,8.90
2023-04-24T10:48:18.322Z,9.60
2023-04-24T10:49:18.243Z,9.90
2023-04-24T10:50:18.211Z,9.60
2023-04-24T10:51:18.208Z,9.40
2023-04-24T10:52:18.198Z,9.50
2023-04-24T10:53:18.183Z,9.90
2023-04-24T10:54:18.185Z,10.10
2023-04-24T10:55:18.150Z,9.90
2023-04-24T10:56:18.161Z,9.80
2023-04-24T10:57:18.141Z,9.90
2023-04-24T10:58:18.125Z,10.10
2023-04-24T10:59:18.105Z,9.70
2023-04-24T11:00:18.127Z,9.30
2023-04-24T11:01:18.117Z,9.50
2023-04-24T11:02:18.182Z,8.90
2023-04-24T11:03:18.330Z,9.80
2023-04-24T11:04:18.145Z,9.50
2023-04-24T11:05:18.083Z,9.70
2023-04-24T11:06:18.039Z,9.70
2023-04-24T11:07:18.027Z,9.00
2023-04-24T11:08:18.025Z,8.90
2023-04-24T11:09:18.002Z,9.10
2023-04-24T11:10:18.010Z,9.10
2023-04-24T11:11:17.992Z,9.20
2023-04-24T11:12:17.976Z,9.20
2023-04-24T11:13:17.993Z,8.80
2023-04-24T11:14:17.966Z,8.80
2023-04-24T11:15:17.961Z,9.10
2023-04-24T11:16:17.939Z,9.70
2023-04-24T11:17:17.907Z,8.90
2023-04-24T11:18:17.928Z,8.80
2023-04-24T11:19:17.896Z,9.50
2023-04-24T11:20:27.577Z,9.10
2023-04-24T11:21:17.941Z,9.30
2023-04-24T11:22:17.869Z,8.90
2023-04-24T11:23:17.930Z,9.50
2023-04-24T11:24:17.861Z,9.40
2023-04-24T11:25:17.838Z,9.00
2023-04-24T11:26:17.825Z,9.70
2023-04-24T11:27:17.822Z,9.70
2023-04-24T11:28:17.798Z,9.20
2023-04-24T11:29:20.234Z,10.10
2023-04-24T11:30:17.806Z,8.90
2023-04-24T11:31:17.757Z,9.50
2023-04-24T11:32:17.781Z,9.50
2023-04-24T11:33:17.762Z,9.70
2023-04-24T11:34:17.742Z,10.00
2023-04-24T11:35:17.756Z,9.60
2023-04-24T11:36:17.715Z,9.20
2023-04-24T11:37:17.711Z,9.30
2023-04-24T11:39:25.101Z,8.20
2023-04-24T11:40:17.691Z,7.70
2023-04-24T11:41:17.650Z,8.30
2023-04-24T11:42:17.645Z,7.80
2023-04-24T11:43:17.656Z,7.30
2023-04-24T11:44:17.633Z,7.20
2023-04-24T11:45:17.633Z,7.40
2023-04-24T11:46:17.675Z,7.00
2023-04-24T11:47:17.581Z,7.80
2023-04-24T11:48:17.561Z,7.60
2023-04-24T11:49:17.563Z,7.50
2023-04-24T11:50:17.548Z,7.30
2023-04-24T11:51:17.520Z,7.60
2023-04-24T11:52:17.533Z,7.30
2023-04-24T11:53:17.533Z,7.80
2023-04-24T11:54:17.521Z,7.40
2023-04-24T11:55:17.522Z,7.90
2023-04-24T11:56:17.484Z,7.60
2023-04-24T11:57:17.480Z,7.60
2023-04-24T11:58:17.467Z,8.30
2023-04-24T11:59:17.461Z,7.80
2023-04-24T12:00:17.741Z,8.00
2023-04-24T12:01:17.433Z,7.90
2023-04-24T12:02:17.452Z,7.80
2023-04-24T12:03:17.565Z,7.40
2023-04-24T12:04:17.856Z,8.00
2023-04-24T12:05:17.828Z,7.90
2023-04-24T12:06:17.404Z,8.40
2023-04-24T12:07:17.370Z,7.70
2023-04-24T12:08:17.351Z,8.50
2023-04-24T12:09:18.561Z,8.50
2023-04-24T12:10:17.362Z,8.10
2023-04-24T12:11:17.312Z,8.10
2023-04-24T12:12:17.308Z,9.10
2023-04-24T12:13:17.290Z,8.40
2023-04-24T12:14:17.432Z,8.00
2023-04-24T12:15:17.289Z,7.80
2023-04-24T12:16:17.311Z,7.60
2023-04-24T12:17:17.262Z,8.10
2023-04-24T12:18:17.264Z,7.80
2023-04-24T12:19:17.222Z,8.20
2023-04-24T12:20:17.251Z,7.90
2023-04-24T12:21:17.215Z,7.50
2023-04-24T12:22:17.191Z,8.00
2023-04-24T12:23:17.185Z,7.80
2023-04-24T12:24:17.168Z,7.90
2023-04-24T12:25:17.172Z,8.30
2023-04-24T12:26:17.169Z,8.30
2023-04-24T12:27:17.150Z,7.60
2023-04-24T12:28:17.121Z,8.40
2023-04-24T12:29:17.118Z,8.10
2023-04-24T12:30:17.126Z,8.00
2023-04-24T12:31:17.179Z,8.20
2023-04-24T12:32:17.063Z,7.60
2023-04-24T12:33:17.115Z,7.60
2023-04-24T12:34:17.053Z,7.20
2023-04-24T12:35:17.090Z,8.00
2023-04-24T12:36:17.049Z,7.80
2023-04-24T12:37:17.023Z,8.10
2023-04-24T12:38:17.027Z,7.40
2023-04-24T12:39:17.010Z,7.40
2023-04-24T12:40:16.998Z,7.60
2023-04-24T12:41:16.983Z,8.10
2023-04-24T12:42:16.977Z,7.80
2023-04-24T12:43:17.014Z,7.60
2023-04-24T12:44:16.938Z,7.40
2023-04-24T12:45:16.953Z,7.80
2023-04-24T12:46:18.358Z,7.40
2023-04-24T12:47:16.972Z,7.60
2023-04-24T12:48:16.982Z,7.30
2023-04-24T12:49:16.890Z,6.80
2023-04-24T12:50:16.907Z,6.70
2023-04-24T12:51:16.906Z,7.20
2023-04-24T12:52:16.869Z,6.70
2023-04-24T12:53:16.847Z,7.00
2023-04-24T12:54:16.875Z,6.90
2023-04-24T12:55:16.985Z,6.50
2023-04-24T12:56:16.815Z,6.60
2023-04-24T12:57:16.798Z,6.20
2023-04-24T12:58:16.805Z,5.40
2023-04-24T12:59:16.839Z,6.50
2023-04-24T13:00:19.427Z,6.00
2023-04-24T13:01:16.853Z,6.10
2023-04-24T13:02:16.773Z,6.30
2023-04-24T13:03:16.860Z,6.20
2023-04-24T13:04:16.828Z,5.90
2023-04-24T13:05:16.734Z,6.60
2023-04-24T13:06:16.703Z,6.40
2023-04-24T13:07:16.713Z,6.50
2023-04-24T13:08:16.677Z,6.90
2023-04-24T13:09:16.667Z,6.70
2023-04-24T13:10:16.673Z,7.30
2023-04-24T13:11:16.639Z,7.10
2023-04-24T13:12:16.647Z,6.60
2023-04-24T13:13:16.623Z,7.10
2023-04-24T13:14:16.608Z,7.10
2023-04-24T13:15:16.629Z,6.70
2023-04-24T13:16:16.615Z,7.50
2023-04-24T13:17:16.580Z,6.70
2023-04-24T13:18:16.568Z,7.40